createdAt,value
2022-10-02T00:00:03.387Z,99.89
2022-10-02T00:01:03.379Z,99.89
2022-10-02T00:02:03.378Z,99.99
2022-10-02T00:03:03.354Z,99.99
2022-10-02T00:04:03.426Z,99.79
2022-10-02T00:05:03.346Z,99.68
2022-10-02T00:06:03.402Z,99.48
2022-10-02T00:07:03.352Z,99.68
2022-10-02T00:08:03.303Z,99.99
2022-10-02T00:09:03.308Z,99.99
2022-10-02T00:10:03.320Z,99.58
2022-10-02T00:11:03.268Z,99.79
2022-10-02T00:12:03.272Z,99.99
2022-10-02T00:13:03.245Z,99.99
2022-10-02T00:14:03.241Z,99.99
2022-10-02T00:15:03.230Z,99.99
2022-10-02T00:16:03.286Z,99.79
2022-10-02T00:17:03.223Z,99.58
2022-10-02T00:18:03.199Z,99.89
2022-10-02T00:19:03.183Z,99.99
2022-10-02T00:20:03.199Z,99.99
2022-10-02T00:21:03.161Z,99.99
2022-10-02T00:22:03.154Z,99.99
2022-10-02T00:23:03.138Z,99.99
2022-10-02T00:24:03.140Z,99.99
2022-10-02T00:25:03.119Z,99.99
2022-10-02T00:26:03.152Z,99.99
2022-10-02T00:27:03.106Z,99.99
2022-10-02T00:28:03.187Z,99.99
2022-10-02T00:29:03.082Z,99.99
2022-10-02T00:30:03.084Z,99.99
2022-10-02T00:31:03.068Z,99.99
2022-10-02T00:32:03.173Z,99.99
2022-10-02T00:33:03.044Z,99.99
2022-10-02T00:34:03.031Z,99.99
2022-10-02T00:35:03.026Z,99.99
2022-10-02T00:36:03.041Z,99.99
2022-10-02T00:37:03.017Z,99.99
2022-10-02T00:38:02.988Z,99.99
2022-10-02T00:39:02.961Z,99.99
2022-10-02T00:40:02.993Z,99.99
2022-10-02T00:41:02.948Z,99.99
2022-10-02T00:42:02.950Z,99.99
2022-10-02T00:43:02.942Z,99.99
2022-10-02T00:44:02.919Z,99.99
2022-10-02T00:45:02.894Z,99.99
2022-10-02T00:46:02.987Z,99.99
2022-10-02T00:47:02.874Z,99.95
2022-10-02T00:48:02.900Z,99.84
2022-10-02T00:49:02.859Z,99.95
2022-10-02T00:50:02.889Z,99.69
2022-10-02T00:51:02.833Z,99.74
2022-10-02T00:52:02.857Z,99.69
2022-10-02T00:53:02.836Z,99.69
2022-10-02T00:54:02.830Z,99.90
2022-10-02T00:55:02.804Z,99.79
2022-10-02T00:56:02.779Z,99.69
2022-10-02T00:57:02.781Z,99.90
2022-10-02T00:58:02.772Z,99.90
2022-10-02T00:59:02.748Z,99.79
2022-10-02T01:00:02.771Z,99.69
2022-10-02T01:01:02.776Z,99.69
2022-10-02T01:02:02.796Z,99.69
2022-10-02T01:03:02.711Z,99.79
2022-10-02T01:04:02.711Z,99.79
2022-10-02T01:05:02.688Z,99.69
2022-10-02T01:06:02.716Z,99.69
2022-10-02T01:07:02.675Z,99.69
2022-10-02T01:08:02.657Z,99.69
2022-10-02T01:09:02.670Z,99.79
2022-10-02T01:10:02.647Z,99.79
2022-10-02T01:11:02.641Z,99.69
2022-10-02T01:12:02.644Z,99.59
2022-10-02T01:13:02.604Z,99.69
2022-10-02T01:14:02.629Z,99.59
2022-10-02T01:15:02.607Z,99.59
2022-10-02T01:16:02.645Z,99.59
2022-10-02T01:17:02.571Z,99.69
2022-10-02T01:18:02.588Z,99.99
2022-10-02T01:19:02.551Z,99.99
2022-10-02T01:20:02.538Z,99.99
2022-10-02T01:21:02.527Z,99.99
2022-10-02T01:22:02.515Z,99.99
2022-10-02T01:23:02.488Z,99.99
2022-10-02T01:24:02.519Z,99.99
2022-10-02T01:25:02.481Z,99.99
2022-10-02T01:26:02.475Z,99.79
2022-10-02T01:27:02.461Z,99.65
2022-10-02T01:28:02.507Z,99.54
2022-10-02T01:29:02.431Z,99.34
2022-10-02T01:30:02.455Z,99.24
2022-10-02T01:31:02.410Z,99.24
2022-10-02T01:32:02.435Z,99.24
2022-10-02T01:33:02.389Z,99.24
2022-10-02T01:34:02.384Z,99.34
2022-10-02T01:35:02.387Z,99.24
2022-10-02T01:36:02.372Z,99.34
2022-10-02T01:37:02.339Z,99.34
2022-10-02T01:38:02.340Z,99.34
2022-10-02T01:39:02.324Z,99.44
2022-10-02T01:40:02.344Z,99.44
2022-10-02T01:41:02.308Z,99.44
2022-10-02T01:42:02.303Z,99.54
2022-10-02T01:43:02.288Z,99.44
2022-10-02T01:44:02.296Z,99.65
2022-10-02T01:45:02.264Z,99.65
2022-10-02T01:46:02.349Z,99.75
2022-10-02T01:47:02.230Z,99.85
2022-10-02T01:48:02.240Z,99.85
2022-10-02T01:49:02.231Z,99.95
2022-10-02T01:50:02.222Z,99.95
2022-10-02T01:51:02.223Z,99.85
2022-10-02T01:52:02.185Z,99.85
2022-10-02T01:53:02.176Z,99.85
2022-10-02T01:54:02.184Z,99.95
2022-10-02T01:55:02.158Z,99.95
2022-10-02T01:56:02.183Z,99.95
2022-10-02T01:57:02.149Z,99.99
2022-10-02T01:58:02.129Z,99.95
2022-10-02T01:59:02.134Z,99.99
2022-10-02T02:00:02.111Z,99.95
2022-10-02T02:01:02.115Z,99.99
2022-10-02T02:02:02.152Z,99.90
2022-10-02T02:03:02.066Z,99.90
2022-10-02T02:04:02.110Z,99.90
2022-10-02T02:05:02.055Z,99.90
2022-10-02T02:06:02.060Z,99.99
2022-10-02T02:07:02.050Z,99.90
2022-10-02T02:08:02.036Z,99.90
2022-10-02T02:09:02.278Z,99.99
2022-10-02T02:10:02.017Z,99.99
2022-10-02T02:11:01.981Z,99.99
2022-10-02T02:12:02.005Z,99.99
2022-10-02T02:13:01.979Z,99.99
2022-10-02T02:14:01.964Z,99.99
2022-10-02T02:15:01.945Z,99.99
2022-10-02T02:16:01.951Z,99.99
2022-10-02T02:17:01.925Z,99.99
2022-10-02T02:18:01.941Z,99.99
2022-10-02T02:19:01.983Z,99.99
2022-10-02T02:20:01.901Z,99.99
2022-10-02T02:21:01.885Z,99.99
2022-10-02T02:22:01.881Z,99.99
2022-10-02T02:23:01.865Z,99.99
2022-10-02T02:24:01.851Z,99.99
2022-10-02T02:25:01.844Z,99.99
2022-10-02T02:26:01.840Z,99.99
2022-10-02T02:27:01.875Z,99.99
2022-10-02T02:28:01.876Z,99.99
2022-10-02T02:29:01.927Z,99.99
2022-10-02T02:30:01.811Z,99.99
2022-10-02T02:31:01.777Z,99.99
2022-10-02T02:32:01.841Z,99.99
2022-10-02T02:33:01.780Z,99.99
2022-10-02T02:34:01.761Z,99.99
2022-10-02T02:35:01.731Z,99.99
2022-10-02T02:36:01.735Z,99.99
2022-10-02T02:37:01.715Z,99.99
2022-10-02T02:38:01.711Z,99.99
2022-10-02T02:39:01.708Z,99.99
2022-10-02T02:40:01.682Z,99.99
2022-10-02T02:41:01.672Z,99.99
2022-10-02T02:42:01.670Z,99.99
2022-10-02T02:43:01.651Z,99.99
2022-10-02T02:44:01.663Z,99.99
2022-10-02T02:45:01.621Z,99.99
2022-10-02T02:46:01.716Z,99.99
2022-10-02T02:47:01.589Z,99.99
2022-10-02T02:48:01.612Z,99.99
2022-10-02T02:49:01.613Z,99.99
2022-10-02T02:50:01.594Z,99.99
2022-10-02T02:51:01.578Z,99.99
2022-10-02T02:52:01.560Z,99.99
2022-10-02T02:53:01.560Z,99.99
2022-10-02T02:54:01.567Z,99.99
2022-10-02T02:55:01.557Z,99.99
2022-10-02T02:56:01.515Z,99.99
2022-10-02T02:57:01.494Z,99.99
2022-10-02T02:58:01.490Z,99.99
2022-10-02T02:59:01.502Z,99.99
2022-10-02T03:00:01.468Z,99.99
2022-10-02T03:01:01.509Z,99.99
2022-10-02T03:02:01.503Z,99.99
2022-10-02T03:03:01.423Z,99.99
2022-10-02T03:04:01.428Z,99.99
2022-10-02T03:05:01.434Z,99.99
2022-10-02T03:06:01.406Z,99.99
2022-10-02T03:07:01.392Z,99.99
2022-10-02T03:08:01.383Z,99.99
2022-10-02T03:09:01.369Z,99.99
2022-10-02T03:10:01.382Z,99.99
2022-10-02T03:11:01.339Z,99.99
2022-10-02T03:12:01.355Z,99.99
2022-10-02T03:13:01.326Z,99.99
2022-10-02T03:14:01.323Z,99.99
2022-10-02T03:15:01.321Z,99.99
2022-10-02T03:16:01.371Z,99.99
2022-10-02T03:17:01.280Z,99.99
2022-10-02T03:18:01.276Z,99.99
2022-10-02T03:19:01.264Z,99.99
2022-10-02T03:20:01.259Z,99.99
2022-10-02T03:21:01.263Z,99.99
2022-10-02T03:22:01.235Z,99.99
2022-10-02T03:23:01.244Z,99.99
2022-10-02T03:24:01.207Z,99.99
2022-10-02T03:25:01.207Z,99.99
2022-10-02T03:26:01.208Z,99.99
2022-10-02T03:27:01.167Z,99.99
2022-10-02T03:28:01.222Z,99.99
2022-10-02T03:29:01.225Z,99.99
2022-10-02T03:30:01.156Z,99.99
2022-10-02T03:31:01.160Z,99.99
2022-10-02T03:32:01.124Z,99.99
2022-10-02T03:33:01.157Z,99.99
2022-10-02T03:34:01.135Z,99.99
2022-10-02T03:35:01.099Z,99.99
2022-10-02T03:36:01.096Z,99.99
2022-10-02T03:37:01.076Z,99.99
2022-10-02T03:38:01.068Z,99.99
2022-10-02T03:39:23.781Z,99.99
2022-10-02T03:40:01.105Z,99.99
2022-10-02T03:41:01.046Z,99.99
2022-10-02T03:42:01.037Z,99.99
2022-10-02T03:43:01.012Z,99.99
2022-10-02T03:44:01.006Z,99.99
2022-10-02T03:45:01.024Z,99.99
2022-10-02T03:46:01.069Z,99.99
2022-10-02T03:47:00.980Z,99.99
2022-10-02T03:48:00.965Z,99.99
2022-10-02T03:49:00.951Z,99.99
2022-10-02T03:50:00.947Z,99.99
2022-10-02T03:51:00.967Z,99.99
2022-10-02T03:52:00.947Z,99.99
2022-10-02T03:53:00.945Z,99.99
2022-10-02T03:54:00.904Z,99.99
2022-10-02T03:55:00.921Z,99.99
2022-10-02T03:56:00.885Z,99.99
2022-10-02T03:57:00.884Z,99.99
2022-10-02T03:58:00.860Z,99.99
2022-10-02T03:59:00.857Z,99.99
2022-10-02T04:00:00.825Z,99.99
2022-10-02T04:01:00.845Z,99.99
2022-10-02T04:02:00.865Z,99.99
2022-10-02T04:03:00.802Z,99.99
2022-10-02T04:04:00.937Z,99.99
2022-10-02T04:05:00.778Z,99.99
2022-10-02T04:06:00.768Z,99.99
2022-10-02T04:07:00.783Z,99.99
2022-10-02T04:08:00.739Z,99.99
2022-10-02T04:09:00.758Z,99.99
2022-10-02T04:10:00.719Z,99.99
2022-10-02T04:11:00.729Z,99.99
2022-10-02T04:12:00.713Z,99.99
2022-10-02T04:13:00.692Z,99.99
2022-10-02T04:14:00.679Z,99.99
2022-10-02T04:15:00.698Z,99.99
2022-10-02T04:16:00.704Z,99.99
2022-10-02T04:17:00.650Z,99.99
2022-10-02T04:18:00.634Z,99.99
2022-10-02T04:19:00.633Z,99.99
2022-10-02T04:20:00.617Z,99.99
2022-10-02T04:21:00.639Z,99.99
2022-10-02T04:22:00.589Z,99.99
2022-10-02T04:23:00.602Z,99.99
2022-10-02T04:24:00.580Z,99.99
2022-10-02T04:25:00.568Z,99.99
2022-10-02T04:26:00.554Z,99.99
2022-10-02T04:27:00.579Z,99.99
2022-10-02T04:28:00.550Z,99.99
2022-10-02T04:29:00.538Z,99.99
2022-10-02T04:30:00.511Z,99.99
2022-10-02T04:31:00.535Z,99.99
2022-10-02T04:32:00.530Z,99.99
2022-10-02T04:33:00.489Z,99.99
2022-10-02T04:34:00.480Z,99.99
2022-10-02T04:35:00.468Z,99.99
2022-10-02T04:36:00.482Z,99.99
2022-10-02T04:37:00.432Z,99.99
2022-10-02T04:38:00.445Z,99.99
2022-10-02T04:39:00.428Z,99.99
2022-10-02T04:40:00.395Z,99.99
2022-10-02T04:41:00.405Z,99.99
2022-10-02T04:42:00.398Z,99.99
2022-10-02T04:43:00.386Z,99.99
2022-10-02T04:44:00.379Z,99.99
2022-10-02T04:45:00.357Z,99.99
2022-10-02T04:46:00.434Z,99.99
2022-10-02T04:47:00.379Z,99.99
2022-10-02T04:48:00.313Z,99.99
2022-10-02T04:49:00.315Z,99.99
2022-10-02T04:50:00.297Z,99.99
2022-10-02T04:51:00.303Z,99.99
2022-10-02T04:52:00.277Z,99.99
2022-10-02T04:53:00.296Z,99.99
2022-10-02T04:54:00.257Z,99.99
2022-10-02T04:55:00.261Z,99.99
2022-10-02T04:56:00.236Z,99.99
2022-10-02T04:57:00.239Z,99.99
2022-10-02T04:58:00.218Z,99.99
2022-10-02T04:59:00.214Z,99.99
2022-10-02T05:00:00.191Z,99.99
2022-10-02T05:01:00.257Z,99.99
2022-10-02T05:02:00.251Z,99.99
2022-10-02T05:03:00.196Z,99.99
2022-10-02T05:04:03.939Z,99.99
2022-10-02T05:05:00.146Z,99.99
2022-10-02T05:06:00.151Z,99.99
2022-10-02T05:07:00.143Z,99.99
2022-10-02T05:08:00.129Z,99.99
2022-10-02T05:09:00.116Z,99.99
2022-10-02T05:10:00.060Z,99.99
2022-10-02T05:11:00.114Z,99.99
2022-10-02T05:12:00.095Z,99.99
2022-10-02T05:13:00.024Z,99.99
2022-10-02T05:13:59.990Z,99.99
2022-10-02T05:15:00.008Z,99.99
2022-10-02T05:16:00.126Z,99.99
2022-10-02T05:16:59.968Z,99.99
2022-10-02T05:17:59.952Z,99.99
2022-10-02T05:18:59.950Z,99.99
2022-10-02T05:19:59.940Z,99.99
2022-10-02T05:20:59.960Z,99.99
2022-10-02T05:21:59.924Z,99.99
2022-10-02T05:22:59.916Z,99.99
2022-10-02T05:23:59.892Z,99.99
2022-10-02T05:24:59.887Z,99.99
2022-10-02T05:25:59.870Z,99.99
2022-10-02T05:26:59.865Z,99.99
2022-10-02T05:27:59.915Z,99.99
2022-10-02T05:28:59.832Z,99.99
2022-10-02T05:29:59.815Z,99.99
2022-10-02T05:30:59.944Z,99.99
2022-10-02T05:31:59.803Z,99.99
2022-10-02T05:32:59.813Z,99.99
2022-10-02T05:33:59.797Z,99.99
2022-10-02T05:34:59.765Z,99.99
2022-10-02T05:35:59.762Z,99.99
2022-10-02T05:36:59.752Z,99.99
2022-10-02T05:37:59.719Z,99.99
2022-10-02T05:38:59.773Z,99.99
2022-10-02T05:39:59.711Z,99.99
2022-10-02T05:40:59.713Z,99.99
2022-10-02T05:41:59.690Z,99.99
2022-10-02T05:42:59.688Z,99.99
2022-10-02T05:43:59.665Z,99.99
2022-10-02T05:44:59.677Z,99.99
2022-10-02T05:45:59.649Z,99.99
2022-10-02T05:46:59.686Z,99.99
2022-10-02T05:47:59.624Z,99.99
2022-10-02T05:48:59.627Z,99.99
2022-10-02T05:49:59.643Z,99.99
2022-10-02T05:50:59.598Z,99.99
2022-10-02T05:51:59.610Z,99.99
2022-10-02T05:52:59.606Z,99.99
2022-10-02T05:53:59.554Z,99.99
2022-10-02T05:54:59.558Z,99.99
2022-10-02T05:55:59.572Z,99.99
2022-10-02T05:56:59.550Z,99.99
2022-10-02T05:57:59.508Z,99.99
2022-10-02T05:58:59.516Z,99.99
2022-10-02T05:59:59.491Z,99.99
2022-10-02T06:00:59.538Z,99.99
2022-10-02T06:01:59.530Z,99.99
2022-10-02T06:02:59.485Z,99.99
2022-10-02T06:03:59.457Z,99.99
2022-10-02T06:04:59.452Z,99.99
2022-10-02T06:05:59.445Z,99.99
2022-10-02T06:06:59.483Z,99.99
2022-10-02T06:07:59.420Z,99.99
2022-10-02T06:08:59.465Z,99.99
2022-10-02T06:09:59.381Z,99.99
2022-10-02T06:10:59.392Z,99.99
2022-10-02T06:11:59.391Z,99.99
2022-10-02T06:12:59.363Z,99.99
2022-10-02T06:13:59.352Z,99.99
2022-10-02T06:14:59.368Z,99.99
2022-10-02T06:15:59.378Z,99.99
2022-10-02T06:16:59.325Z,99.99
2022-10-02T06:17:59.312Z,99.99
2022-10-02T06:18:59.331Z,99.99
2022-10-02T06:20:03.309Z,99.99
2022-10-02T06:20:59.313Z,99.99
2022-10-02T06:21:59.267Z,99.99
2022-10-02T06:22:59.257Z,99.99
2022-10-02T06:23:59.262Z,99.99
2022-10-02T06:24:59.239Z,99.99
2022-10-02T06:25:59.251Z,99.99
2022-10-02T06:26:59.217Z,99.99
2022-10-02T06:27:59.267Z,99.99
2022-10-02T06:28:59.189Z,99.99
2022-10-02T06:29:59.187Z,99.99
2022-10-02T06:30:59.189Z,99.99
2022-10-02T06:31:59.257Z,99.99
2022-10-02T06:32:59.148Z,99.99
2022-10-02T06:33:59.136Z,99.99
2022-10-02T06:34:59.138Z,99.99
2022-10-02T06:35:59.108Z,99.99
2022-10-02T06:36:59.118Z,99.99
2022-10-02T06:37:59.079Z,99.99
2022-10-02T06:38:59.093Z,99.99
2022-10-02T06:39:59.061Z,99.99
2022-10-02T06:40:59.071Z,99.99
2022-10-02T06:41:59.092Z,99.99
2022-10-02T06:42:59.064Z,99.99
2022-10-02T06:43:59.025Z,99.99
2022-10-02T06:44:59.024Z,99.99
2022-10-02T06:45:59.155Z,99.99
2022-10-02T06:46:59.000Z,99.99
2022-10-02T06:47:58.992Z,99.99
2022-10-02T06:48:58.995Z,99.99
2022-10-02T06:49:58.962Z,99.99
2022-10-02T06:50:58.960Z,99.99
2022-10-02T06:51:58.948Z,99.99
2022-10-02T06:52:58.935Z,99.99
2022-10-02T06:53:58.929Z,99.99
2022-10-02T06:54:58.925Z,99.99
2022-10-02T06:55:58.907Z,99.99
2022-10-02T06:56:58.888Z,99.99
2022-10-02T06:57:58.872Z,99.99
2022-10-02T06:58:58.876Z,99.99
2022-10-02T06:59:58.853Z,99.99
2022-10-02T07:00:58.877Z,99.99
2022-10-02T07:01:58.881Z,99.99
2022-10-02T07:02:58.827Z,99.99
2022-10-02T07:03:58.826Z,99.99
2022-10-02T07:04:58.792Z,99.99
2022-10-02T07:05:58.780Z,99.99
2022-10-02T07:06:58.869Z,99.99
2022-10-02T07:07:58.765Z,99.99
2022-10-02T07:08:58.761Z,99.99
2022-10-02T07:09:58.789Z,99.99
2022-10-02T07:10:58.726Z,99.99
2022-10-02T07:11:58.712Z,99.99
2022-10-02T07:12:58.709Z,99.99
2022-10-02T07:13:58.681Z,99.99
2022-10-02T07:14:58.777Z,99.99
2022-10-02T07:15:58.689Z,99.99
2022-10-02T07:16:58.685Z,99.99
2022-10-02T07:17:58.721Z,99.99
2022-10-02T07:18:58.669Z,99.99
2022-10-02T07:19:58.635Z,99.99
2022-10-02T07:20:58.625Z,99.99
2022-10-02T07:21:58.617Z,99.99
2022-10-02T07:22:58.602Z,99.99
2022-10-02T07:24:02.190Z,99.99
2022-10-02T07:24:58.584Z,99.99
2022-10-02T07:25:58.568Z,99.99
2022-10-02T07:26:58.591Z,99.99
2022-10-02T07:27:58.568Z,99.99
2022-10-02T07:28:58.536Z,99.99
2022-10-02T07:29:58.544Z,99.99
2022-10-02T07:30:58.533Z,99.99
2022-10-02T07:31:58.564Z,99.99
2022-10-02T07:32:58.513Z,99.99
2022-10-02T07:33:58.468Z,99.99
2022-10-02T07:34:58.482Z,99.63
2022-10-02T07:35:58.466Z,99.32
2022-10-02T07:36:58.445Z,99.42
2022-10-02T07:37:58.540Z,99.22
2022-10-02T07:38:58.441Z,99.52
2022-10-02T07:39:58.409Z,99.42
2022-10-02T07:41:00.067Z,99.58
2022-10-02T07:41:58.398Z,98.71
2022-10-02T07:42:58.413Z,99.11
2022-10-02T07:43:58.414Z,99.22
2022-10-02T07:44:58.367Z,99.11
2022-10-02T07:45:58.392Z,98.91
2022-10-02T07:46:58.345Z,98.91
2022-10-02T07:47:58.359Z,99.02
2022-10-02T07:48:58.316Z,99.32
2022-10-02T07:49:58.320Z,99.11
2022-10-02T07:50:58.310Z,99.42
2022-10-02T07:51:58.293Z,99.42
2022-10-02T07:52:58.290Z,99.02
2022-10-02T07:53:58.258Z,98.61
2022-10-02T07:54:58.290Z,99.02
2022-10-02T07:55:58.238Z,99.32
2022-10-02T07:56:58.251Z,99.02
2022-10-02T07:57:58.228Z,98.77
2022-10-02T07:58:58.232Z,98.46
2022-10-02T07:59:58.203Z,98.26
2022-10-02T08:00:58.206Z,98.46
2022-10-02T08:01:58.234Z,98.26
2022-10-02T08:02:58.270Z,98.05
2022-10-02T08:03:58.160Z,97.65
2022-10-02T08:04:58.158Z,97.09
2022-10-02T08:05:58.227Z,97.40
2022-10-02T08:06:58.116Z,97.40
2022-10-02T08:07:58.127Z,97.30
2022-10-02T08:08:58.094Z,96.99
2022-10-02T08:09:58.095Z,96.69
2022-10-02T08:10:58.143Z,97.09
2022-10-02T08:11:58.113Z,97.30
2022-10-02T08:12:58.071Z,97.71
2022-10-02T08:13:58.062Z,97.50
2022-10-02T08:14:58.041Z,97.20
2022-10-02T08:15:58.098Z,96.99
2022-10-02T08:16:58.040Z,96.89
2022-10-02T08:18:10.805Z,97.09
2022-10-02T08:18:58.004Z,96.89
2022-10-02T08:19:57.991Z,96.69
2022-10-02T08:20:58.139Z,96.59
2022-10-02T08:21:57.999Z,96.69
2022-10-02T08:22:57.954Z,96.79
2022-10-02T08:23:57.963Z,96.99
2022-10-02T08:24:57.992Z,96.84
2022-10-02T08:25:57.944Z,96.44
2022-10-02T08:26:57.904Z,96.64
2022-10-02T08:27:57.962Z,95.53
2022-10-02T08:28:57.895Z,95.48
2022-10-02T08:29:57.895Z,95.07
2022-10-02T08:30:57.862Z,95.18
2022-10-02T08:31:57.966Z,95.18
2022-10-02T08:32:57.880Z,95.38
2022-10-02T08:33:57.834Z,95.48
2022-10-02T08:34:57.827Z,94.41
2022-10-02T08:35:57.817Z,94.37
2022-10-02T08:36:57.803Z,94.26
2022-10-02T08:37:57.827Z,94.53
2022-10-02T08:38:57.775Z,94.42
2022-10-02T08:39:57.780Z,92.25
2022-10-02T08:40:57.784Z,91.85
2022-10-02T08:41:57.755Z,92.25
2022-10-02T08:42:57.738Z,92.25
2022-10-02T08:43:57.743Z,92.14
2022-10-02T08:44:57.754Z,92.25
2022-10-02T08:45:57.735Z,92.05
2022-10-02T08:46:57.760Z,92.31
2022-10-02T08:47:57.740Z,91.90
2022-10-02T08:48:57.679Z,91.30
2022-10-02T08:49:57.674Z,91.09
2022-10-02T08:50:57.647Z,91.30
2022-10-02T08:51:57.635Z,91.30
2022-10-02T08:52:57.660Z,90.69
2022-10-02T08:53:57.629Z,91.70
2022-10-02T08:54:57.596Z,91.90
2022-10-02T08:55:57.613Z,91.30
2022-10-02T08:56:57.578Z,92.00
2022-10-02T08:57:57.566Z,90.28
2022-10-02T08:58:57.584Z,91.19
2022-10-02T08:59:57.572Z,90.99
2022-10-02T09:00:57.606Z,91.30
2022-10-02T09:01:59.962Z,90.44
2022-10-02T09:02:57.509Z,90.89
2022-10-02T09:03:57.556Z,90.99
2022-10-02T09:04:57.493Z,91.39
2022-10-02T09:05:57.497Z,89.83
2022-10-02T09:06:57.468Z,90.14
2022-10-02T09:07:57.470Z,89.53
2022-10-02T09:08:57.490Z,89.23
2022-10-02T09:09:57.473Z,90.14
2022-10-02T09:10:57.427Z,90.64
2022-10-02T09:11:57.419Z,90.44
2022-10-02T09:12:57.410Z,90.64
2022-10-02T09:13:57.431Z,90.14
2022-10-02T09:14:59.003Z,89.43
2022-10-02T09:15:57.440Z,90.34
2022-10-02T09:16:57.417Z,90.18
2022-10-02T09:17:57.359Z,90.14
2022-10-02T09:18:57.390Z,89.94
2022-10-02T09:19:57.368Z,89.94
2022-10-02T09:20:57.330Z,89.43
2022-10-02T09:21:57.323Z,89.63
2022-10-02T09:22:57.297Z,89.23
2022-10-02T09:23:57.302Z,88.51
2022-10-02T09:24:57.289Z,88.51
2022-10-02T09:25:57.297Z,89.89
2022-10-02T09:26:57.261Z,88.48
2022-10-02T09:27:57.337Z,89.39
2022-10-02T09:28:57.262Z,88.27
2022-10-02T09:29:57.240Z,89.08
2022-10-02T09:30:57.231Z,88.17
2022-10-02T09:31:57.248Z,87.73
2022-10-02T09:32:57.192Z,86.67
2022-10-02T09:33:57.194Z,86.63
2022-10-02T09:34:57.182Z,85.31
2022-10-02T09:35:57.188Z,84.85
2022-10-02T09:36:57.169Z,85.62
2022-10-02T09:37:57.158Z,85.22
2022-10-02T09:38:57.127Z,85.82
2022-10-02T09:39:57.124Z,86.02
2022-10-02T09:40:57.114Z,86.43
2022-10-02T09:41:57.135Z,86.07
2022-10-02T09:42:57.092Z,85.86
2022-10-02T09:43:57.086Z,87.08
2022-10-02T09:45:01.221Z,87.08
2022-10-02T09:45:57.149Z,85.76
2022-10-02T09:46:57.059Z,86.37
2022-10-02T09:47:57.061Z,85.86
2022-10-02T09:48:57.019Z,86.51
2022-10-02T09:49:57.015Z,86.71
2022-10-02T09:50:56.993Z,87.62
2022-10-02T09:51:56.996Z,87.36
2022-10-02T09:52:57.003Z,87.77
2022-10-02T09:53:56.983Z,88.48
2022-10-02T09:54:56.950Z,86.90
2022-10-02T09:55:56.959Z,87.30
2022-10-02T09:56:56.927Z,84.67
2022-10-02T09:57:56.960Z,85.07
2022-10-02T09:58:56.908Z,85.58
2022-10-02T09:59:56.898Z,85.78
2022-10-02T10:00:56.959Z,85.24
2022-10-02T10:01:56.944Z,83.64
2022-10-02T10:02:56.873Z,80.32
2022-10-02T10:03:56.882Z,78.53
2022-10-02T10:05:11.824Z,76.61
2022-10-02T10:05:56.850Z,75.40
2022-10-02T10:06:56.827Z,73.78
2022-10-02T10:07:56.824Z,73.48
2022-10-02T10:08:56.830Z,73.38
2022-10-02T10:09:56.822Z,72.58
2022-10-02T10:10:56.783Z,74.22
2022-10-02T10:11:56.798Z,75.37
2022-10-02T10:12:56.794Z,76.31
2022-10-02T10:13:56.771Z,77.56
2022-10-02T10:14:56.738Z,77.42
2022-10-02T10:15:56.787Z,77.02
2022-10-02T10:16:56.778Z,78.27
2022-10-02T10:17:56.755Z,77.76
2022-10-02T10:18:56.695Z,79.28
2022-10-02T10:19:56.696Z,77.26
2022-10-02T10:20:56.700Z,77.76
2022-10-02T10:21:56.685Z,78.67
2022-10-02T10:22:56.683Z,77.46
2022-10-02T10:23:56.660Z,76.75
2022-10-02T10:24:56.637Z,76.75
2022-10-02T10:25:56.687Z,76.86
2022-10-02T10:26:56.610Z,76.51
2022-10-02T10:27:56.688Z,74.63
2022-10-02T10:28:57.651Z,74.46
2022-10-02T10:29:56.599Z,73.75
2022-10-02T10:30:56.566Z,73.99
2022-10-02T10:31:56.640Z,76.31
2022-10-02T10:32:56.558Z,72.91
2022-10-02T10:33:56.574Z,74.05
2022-10-02T10:34:56.539Z,73.55
2022-10-02T10:35:56.545Z,74.96
2022-10-02T10:36:56.515Z,73.79
2022-10-02T10:37:56.547Z,73.01
2022-10-02T10:38:56.512Z,74.32
2022-10-02T10:39:56.501Z,73.22
2022-10-02T10:40:56.476Z,73.35
2022-10-02T10:41:56.478Z,74.76
2022-10-02T10:43:07.517Z,74.12
2022-10-02T10:43:56.470Z,74.46
2022-10-02T10:44:56.440Z,76.78
2022-10-02T10:45:57.466Z,75.80
2022-10-02T10:46:56.411Z,73.48
2022-10-02T10:47:56.403Z,72.81
2022-10-02T10:48:56.394Z,73.65
2022-10-02T10:49:56.379Z,72.71
2022-10-02T10:50:56.390Z,72.64
2022-10-02T10:51:56.360Z,73.22
2022-10-02T10:52:56.358Z,73.55
2022-10-02T10:54:01.630Z,72.88
2022-10-02T10:54:56.321Z,72.47
2022-10-02T10:55:56.340Z,70.86
2022-10-02T10:56:56.291Z,70.73
2022-10-02T10:57:56.287Z,72.61
2022-10-02T10:58:56.292Z,73.99
2022-10-02T10:59:56.263Z,75.64
2022-10-02T11:00:56.365Z,76.45
2022-10-02T11:01:56.299Z,76.04
2022-10-02T11:02:56.232Z,76.59
2022-10-02T11:03:56.228Z,77.26
2022-10-02T11:04:56.209Z,77.06
2022-10-02T11:05:56.213Z,75.84
2022-10-02T11:06:56.195Z,75.84
2022-10-02T11:07:56.176Z,75.34
2022-10-02T11:08:56.171Z,75.44
2022-10-02T11:09:56.171Z,75.13
2022-10-02T11:10:56.152Z,73.79
2022-10-02T11:11:56.166Z,70.86
2022-10-02T11:12:56.270Z,69.09
2022-10-02T11:13:56.136Z,66.24
2022-10-02T11:14:56.103Z,65.50
2022-10-02T11:15:56.117Z,65.80
2022-10-02T11:16:56.098Z,66.44
2022-10-02T11:17:56.100Z,65.10
2022-10-02T11:18:56.089Z,63.22
2022-10-02T11:19:56.060Z,64.90
2022-10-02T11:20:56.052Z,63.65
2022-10-02T11:21:56.053Z,64.82
2022-10-02T11:22:56.035Z,66.56
2022-10-02T11:23:56.024Z,65.89
2022-10-02T11:24:56.042Z,66.19
2022-10-02T11:25:55.992Z,67.50
2022-10-02T11:26:55.978Z,66.76
2022-10-02T11:27:56.096Z,66.29
2022-10-02T11:28:56.006Z,66.52
2022-10-02T11:29:55.955Z,68.77
2022-10-02T11:30:55.944Z,69.38
2022-10-02T11:31:55.996Z,70.29
2022-10-02T11:32:55.918Z,71.20
2022-10-02T11:33:55.934Z,71.64
2022-10-02T11:34:55.894Z,71.64
2022-10-02T11:35:55.896Z,71.84
2022-10-02T11:36:55.878Z,73.05
2022-10-02T11:37:55.873Z,70.36
2022-10-02T11:38:55.865Z,70.86
2022-10-02T11:39:55.847Z,70.96
2022-10-02T11:40:55.826Z,72.38
2022-10-02T11:41:55.832Z,70.96
2022-10-02T11:42:55.808Z,71.37
2022-10-02T11:43:55.825Z,72.24
2022-10-02T11:44:55.783Z,71.20
2022-10-02T11:45:55.830Z,69.55
2022-10-02T11:46:55.759Z,70.96
2022-10-02T11:47:55.775Z,70.83
2022-10-02T11:48:55.793Z,67.90
2022-10-02T11:49:55.747Z,68.44
2022-10-02T11:50:55.731Z,67.20
2022-10-02T11:51:55.711Z,67.13
2022-10-02T11:52:55.708Z,66.73
2022-10-02T11:53:55.706Z,67.97
2022-10-02T11:54:55.711Z,67.87
2022-10-02T11:55:55.686Z,69.52
2022-10-02T11:56:55.661Z,70.53
2022-10-02T11:57:55.646Z,69.21
2022-10-02T11:58:55.643Z,68.51
2022-10-02T11:59:55.628Z,68.68
2022-10-02T12:00:55.654Z,70.29
2022-10-02T12:01:55.656Z,66.73
2022-10-02T12:02:55.690Z,68.14
2022-10-02T12:03:55.609Z,68.04
2022-10-02T12:04:55.619Z,65.29
2022-10-02T12:05:55.601Z,65.69
2022-10-02T12:06:55.568Z,64.86
2022-10-02T12:07:55.549Z,66.36
2022-10-02T12:08:55.541Z,65.12
2022-10-02T12:09:55.529Z,65.36
2022-10-02T12:10:55.507Z,63.59
2022-10-02T12:11:55.519Z,63.42
2022-10-02T12:12:55.478Z,63.79
2022-10-02T12:13:55.478Z,62.26
2022-10-02T12:14:55.462Z,61.10
2022-10-02T12:15:55.462Z,62.13
2022-10-02T12:16:55.483Z,61.49
2022-10-02T12:17:55.447Z,63.93
2022-10-02T12:18:55.417Z,64.33
2022-10-02T12:19:55.466Z,64.96
2022-10-02T12:20:55.418Z,64.99
2022-10-02T12:21:55.422Z,66.03
2022-10-02T12:22:55.393Z,67.91
2022-10-02T12:23:55.382Z,68.51
2022-10-02T12:24:55.419Z,68.65
2022-10-02T12:25:55.341Z,67.27
2022-10-02T12:26:55.363Z,68.13
2022-10-02T12:27:55.366Z,69.35
2022-10-02T12:28:55.317Z,69.45
2022-10-02T12:29:55.303Z,70.49
2022-10-02T12:30:55.313Z,69.18
2022-10-02T12:31:55.343Z,72.00
2022-10-02T12:32:55.273Z,71.50
2022-10-02T12:33:56.725Z,71.44
2022-10-02T12:34:55.263Z,72.04
2022-10-02T12:35:55.225Z,72.24
2022-10-02T12:36:55.323Z,71.94
2022-10-02T12:37:55.311Z,72.95
2022-10-02T12:38:55.214Z,71.26
2022-10-02T12:39:55.200Z,69.85
2022-10-02T12:40:55.184Z,69.89
2022-10-02T12:41:55.218Z,70.69
2022-10-02T12:42:55.179Z,69.98
2022-10-02T12:43:55.177Z,68.98
2022-10-02T12:44:55.155Z,65.96
2022-10-02T12:45:55.234Z,63.15
2022-10-02T12:46:55.171Z,63.70
2022-10-02T12:47:55.132Z,62.06
2022-10-02T12:48:55.107Z,59.53
2022-10-02T12:49:55.078Z,57.15
2022-10-02T12:50:55.110Z,56.29
2022-10-02T12:51:55.070Z,55.42